sensor_id;sensor_type;location;lat;lon;timestamp;P1;durP1;ratioP1;P2;durP2;ratioP2
8458;SDS011;4266;48.816;9.154;2023-01-01T00:01:21;41.63;;;30.97;;
8458;SDS011;4266;48.816;9.154;2023-01-01T00:03:48;34.90;;;26.77;;
8458;SDS011;4266;48.816;9.154;2023-01-01T00:06:13;28.40;;;23.80;;
8458;SDS011;4266;48.816;9.154;2023-01-01T00:08:39;27.77;;;22.70;;
8458;SDS011;4266;48.816;9.154;2023-01-01T00:11:05;30.00;;;22.00;;
8458;SDS011;4266;48.816;9.154;2023-01-01T00:13:31;28.67;;;22.20;;
8458;SDS011;4266;48.816;9.154;2023-01-01T00:16:02;26.23;;;20.03;;
8458;SDS011;4266;48.816;9.154;2023-01-01T00:18:22;27.90;;;21.07;;
8458;SDS011;4266;48.816;9.154;2023-01-01T00:20:48;23.87;;;20.23;;
8458;SDS011;4266;48.816;9.154;2023-01-01T00:23:14;23.40;;;19.27;;
8458;SDS011;4266;48.816;9.154;2023-01-01T00:25:40;21.27;;;17.10;;
8458;SDS011;4266;48.816;9.154;2023-01-01T00:28:05;28.40;;;18.03;;
8458;SDS011;4266;48.816;9.154;2023-01-01T00:30:31;17.33;;;15.50;;
8458;SDS011;4266;48.816;9.154;2023-01-01T00:32:57;17.90;;;14.23;;
8458;SDS011;4266;48.816;9.154;2023-01-01T00:35:23;15.67;;;12.90;;
8458;SDS011;4266;48.816;9.154;2023-01-01T00:37:49;15.10;;;12.33;;
8458;SDS011;4266;48.816;9.154;2023-01-01T00:40:15;15.30;;;11.90;;
8458;SDS011;4266;48.816;9.154;2023-01-01T00:42:41;13.53;;;11.77;;
8458;SDS011;4266;48.816;9.154;2023-01-01T00:45:07;12.40;;;11.20;;
8458;SDS011;4266;48.816;9.154;2023-01-01T00:47:33;12.53;;;10.90;;
8458;SDS011;4266;48.816;9.154;2023-01-01T00:49:59;10.63;;;9.43;;
8458;SDS011;4266;48.816;9.154;2023-01-01T00:52:26;12.23;;;10.23;;
8458;SDS011;4266;48.816;9.154;2023-01-01T00:54:52;12.23;;;10.77;;
8458;SDS011;4266;48.816;9.154;2023-01-01T00:57:18;12.13;;;10.27;;
8458;SDS011;4266;48.816;9.154;2023-01-01T00:59:44;12.43;;;10.33;;
8458;SDS011;4266;48.816;9.154;2023-01-01T01:02:10;11.67;;;10.43;;
8458;SDS011;4266;48.816;9.154;2023-01-01T01:04:36;12.60;;;10.60;;
8458;SDS011;4266;48.816;9.154;2023-01-01T01:07:02;16.67;;;11.20;;
8458;SDS011;4266;48.816;9.154;2023-01-01T01:09:27;11.70;;;9.93;;
8458;SDS011;4266;48.816;9.154;2023-01-01T01:11:53;11.23;;;9.90;;
8458;SDS011;4266;48.816;9.154;2023-01-01T01:14:20;12.00;;;9.93;;
8458;SDS011;4266;48.816;9.154;2023-01-01T01:16:46;12.90;;;10.60;;
8458;SDS011;4266;48.816;9.154;2023-01-01T01:19:12;12.73;;;9.77;;
8458;SDS011;4266;48.816;9.154;2023-01-01T01:21:38;10.80;;;9.77;;
8458;SDS011;4266;48.816;9.154;2023-01-01T01:24:05;13.77;;;9.97;;
8458;SDS011;4266;48.816;9.154;2023-01-01T01:26:31;12.03;;;9.47;;
8458;SDS011;4266;48.816;9.154;2023-01-01T01:28:57;11.70;;;10.50;;
8458;SDS011;4266;48.816;9.154;2023-01-01T01:31:24;12.77;;;9.83;;
8458;SDS011;4266;48.816;9.154;2023-01-01T01:33:49;10.87;;;9.27;;
8458;SDS011;4266;48.816;9.154;2023-01-01T01:36:15;10.90;;;9.80;;
8458;SDS011;4266;48.816;9.154;2023-01-01T01:38:41;12.77;;;10.23;;
8458;SDS011;4266;48.816;9.154;2023-01-01T01:41:07;10.47;;;9.40;;
8458;SDS011;4266;48.816;9.154;2023-01-01T01:46:15;9.97;;;8.97;;
8458;SDS011;4266;48.816;9.154;2023-01-01T01:48:41;12.00;;;8.80;;
8458;SDS011;4266;48.816;9.154;2023-01-01T01:51:05;9.87;;;8.53;;
8458;SDS011;4266;48.816;9.154;2023-01-01T01:53:32;9.60;;;7.90;;
8458;SDS011;4266;48.816;9.154;2023-01-01T01:56:00;8.67;;;7.83;;
8458;SDS011;4266;48.816;9.154;2023-01-01T01:58:25;8.70;;;7.77;;
8458;SDS011;4266;48.816;9.154;2023-01-01T02:00:51;8.27;;;7.43;;
8458;SDS011;4266;48.816;9.154;2023-01-01T02:03:19;8.03;;;7.23;;
8458;SDS011;4266;48.816;9.154;2023-01-01T02:05:44;9.23;;;7.63;;
8458;SDS011;4266;48.816;9.154;2023-01-01T02:08:10;8.37;;;7.57;;
8458;SDS011;4266;48.816;9.154;2023-01-01T02:10:36;9.50;;;7.70;;
8458;SDS011;4266;48.816;9.154;2023-01-01T02:13:01;8.00;;;7.30;;
8458;SDS011;4266;48.816;9.154;2023-01-01T02:15:29;7.63;;;6.83;;
8458;SDS011;4266;48.816;9.154;2023-01-01T02:18:01;8.23;;;7.47;;
8458;SDS011;4266;48.816;9.154;2023-01-01T02:20:33;8.70;;;7.27;;
8458;SDS011;4266;48.816;9.154;2023-01-01T02:24:11;8.10;;;7.03;;
8458;SDS011;4266;48.816;9.154;2023-01-01T02:25:56;8.77;;;7.30;;
8458;SDS011;4266;48.816;9.154;2023-01-01T02:28:21;7.53;;;6.83;;
8458;SDS011;4266;48.816;9.154;2023-01-01T02:30:50;8.80;;;6.50;;
8458;SDS011;4266;48.816;9.154;2023-01-01T02:33:17;10.40;;;7.57;;
8458;SDS011;4266;48.816;9.154;2023-01-01T02:35:44;8.30;;;7.00;;
8458;SDS011;4266;48.816;9.154;2023-01-01T02:38:11;9.23;;;7.53;;
8458;SDS011;4266;48.816;9.154;2023-01-01T02:40:43;8.10;;;7.23;;
8458;SDS011;4266;48.816;9.154;2023-01-01T02:43:07;7.53;;;6.33;;
8458;SDS011;4266;48.816;9.154;2023-01-01T02:45:33;7.53;;;5.60;;
8458;SDS011;4266;48.816;9.154;2023-01-01T02:48:02;9.00;;;5.13;;
8458;SDS011;4266;48.816;9.154;2023-01-01T02:50:28;5.77;;;4.87;;
8458;SDS011;4266;48.816;9.154;2023-01-01T02:52:59;4.70;;;4.40;;
8458;SDS011;4266;48.816;9.154;2023-01-01T02:55:43;4.90;;;4.50;;
8458;SDS011;4266;48.816;9.154;2023-01-01T02:58:24;5.57;;;5.03;;
8458;SDS011;4266;48.816;9.154;2023-01-01T03:00:57;5.13;;;4.63;;
8458;SDS011;4266;48.816;9.154;2023-01-01T03:03:25;6.10;;;5.00;;
8458;SDS011;4266;48.816;9.154;2023-01-01T03:06:07;4.70;;;4.30;;
8458;SDS011;4266;48.816;9.154;2023-01-01T03:09:02;5.73;;;5.03;;
8458;SDS011;4266;48.816;9.154;2023-01-01T03:11:29;5.43;;;4.30;;
8458;SDS011;4266;48.816;9.154;2023-01-01T03:13:57;4.53;;;4.13;;
8458;SDS011;4266;48.816;9.154;2023-01-01T03:16:26;4.73;;;4.33;;
8458;SDS011;4266;48.816;9.154;2023-01-01T03:18:54;4.73;;;4.03;;
8458;SDS011;4266;48.816;9.154;2023-01-01T03:21:17;4.80;;;4.40;;
8458;SDS011;4266;48.816;9.154;2023-01-01T03:23:45;4.40;;;4.00;;
8458;SDS011;4266;48.816;9.154;2023-01-01T03:26:08;4.80;;;4.40;;
8458;SDS011;4266;48.816;9.154;2023-01-01T03:28:34;4.37;;;3.97;;
8458;SDS011;4266;48.816;9.154;2023-01-01T03:30:59;4.47;;;4.07;;
8458;SDS011;4266;48.816;9.154;2023-01-01T03:33:29;4.87;;;4.20;;
8458;SDS011;4266;48.816;9.154;2023-01-01T03:35:59;4.43;;;4.07;;
8458;SDS011;4266;48.816;9.154;2023-01-01T03:38:26;5.20;;;4.70;;
8458;SDS011;4266;48.816;9.154;2023-01-01T03:40:51;4.63;;;4.20;;
8458;SDS011;4266;48.816;9.154;2023-01-01T03:43:20;5.17;;;4.67;;
8458;SDS011;4266;48.816;9.154;2023-01-01T03:45:45;4.47;;;4.07;;
8458;SDS011;4266;48.816;9.154;2023-01-01T03:48:11;6.33;;;5.70;;
8458;SDS011;4266;48.816;9.154;2023-01-01T03:50:40;6.80;;;5.33;;
8458;SDS011;4266;48.816;9.154;2023-01-01T03:53:07;7.67;;;6.50;;
8458;SDS011;4266;48.816;9.154;2023-01-01T03:55:35;8.33;;;7.50;;
8458;SDS011;4266;48.816;9.154;2023-01-01T03:58:03;10.73;;;8.70;;
8458;SDS011;4266;48.816;9.154;2023-01-01T04:00:32;11.03;;;9.23;;
8458;SDS011;4266;48.816;9.154;2023-01-01T04:03:01;12.10;;;8.77;;
8458;SDS011;4266;48.816;9.154;2023-01-01T04:05:35;11.30;;;7.20;;
8458;SDS011;4266;48.816;9.154;2023-01-01T04:08:01;11.30;;;7.80;;
8458;SDS011;4266;48.816;9.154;2023-01-01T04:10:26;7.00;;;6.30;;
8458;SDS011;4266;48.816;9.154;2023-01-01T04:12:52;6.80;;;6.07;;
8458;SDS011;4266;48.816;9.154;2023-01-01T04:15:18;6.13;;;4.73;;
8458;SDS011;4266;48.816;9.154;2023-01-01T04:17:44;7.33;;;5.47;;
8458;SDS011;4266;48.816;9.154;2023-01-01T04:20:10;5.50;;;4.97;;
8458;SDS011;4266;48.816;9.154;2023-01-01T04:22:36;5.37;;;4.70;;
8458;SDS011;4266;48.816;9.154;2023-01-01T04:25:01;5.40;;;4.90;;
8458;SDS011;4266;48.816;9.154;2023-01-01T04:27:28;6.47;;;5.10;;
8458;SDS011;4266;48.816;9.154;2023-01-01T04:29:54;5.70;;;5.17;;
8458;SDS011;4266;48.816;9.154;2023-01-01T04:32:20;7.13;;;5.50;;
8458;SDS011;4266;48.816;9.154;2023-01-01T04:34:46;5.40;;;4.90;;
8458;SDS011;4266;48.816;9.154;2023-01-01T04:37:12;6.03;;;5.47;;
8458;SDS011;4266;48.816;9.154;2023-01-01T04:39:39;5.80;;;4.73;;
8458;SDS011;4266;48.816;9.154;2023-01-01T04:42:04;4.73;;;4.33;;
8458;SDS011;4266;48.816;9.154;2023-01-01T04:44:30;5.63;;;4.73;;
8458;SDS011;4266;48.816;9.154;2023-01-01T04:46:56;5.20;;;4.70;;
8458;SDS011;4266;48.816;9.154;2023-01-01T04:49:22;7.30;;;5.23;;
8458;SDS011;4266;48.816;9.154;2023-01-01T04:51:48;5.13;;;4.70;;
8458;SDS011;4266;48.816;9.154;2023-01-01T04:54:14;5.57;;;5.07;;
8458;SDS011;4266;48.816;9.154;2023-01-01T04:56:39;5.40;;;4.90;;
8458;SDS011;4266;48.816;9.154;2023-01-01T04:59:05;5.47;;;4.97;;
8458;SDS011;4266;48.816;9.154;2023-01-01T05:01:31;7.97;;;4.90;;
8458;SDS011;4266;48.816;9.154;2023-01-01T05:03:57;7.33;;;4.80;;
8458;SDS011;4266;48.816;9.154;2023-01-01T05:06:23;6.60;;;5.17;;
8458;SDS011;4266;48.816;9.154;2023-01-01T05:08:49;5.33;;;4.80;;
8458;SDS011;4266;48.816;9.154;2023-01-01T05:11:16;6.10;;;5.50;;
8458;SDS011;4266;48.816;9.154;2023-01-01T05:13:41;6.10;;;5.50;;
8458;SDS011;4266;48.816;9.154;2023-01-01T05:16:07;5.50;;;5.00;;
8458;SDS011;4266;48.816;9.154;2023-01-01T05:18:33;5.60;;;5.10;;
8458;SDS011;4266;48.816;9.154;2023-01-01T05:20:59;5.63;;;4.90;;
8458;SDS011;4266;48.816;9.154;2023-01-01T05:23:26;5.23;;;4.77;;
8458;SDS011;4266;48.816;9.154;2023-01-01T05:25:52;5.47;;;4.37;;
8458;SDS011;4266;48.816;9.154;2023-01-01T05:28:18;5.17;;;4.67;;
8458;SDS011;4266;48.816;9.154;2023-01-01T05:30:43;5.83;;;4.23;;
8458;SDS011;4266;48.816;9.154;2023-01-01T05:33:09;4.97;;;4.57;;
8458;SDS011;4266;48.816;9.154;2023-01-01T05:35:36;4.40;;;4.00;;
8458;SDS011;4266;48.816;9.154;2023-01-01T05:38:01;7.67;;;4.60;;
8458;SDS011;4266;48.816;9.154;2023-01-01T05:40:27;4.33;;;3.93;;
8458;SDS011;4266;48.816;9.154;2023-01-01T05:42:53;4.30;;;3.90;;
8458;SDS011;4266;48.816;9.154;2023-01-01T05:45:19;4.27;;;3.87;;
8458;SDS011;4266;48.816;9.154;2023-01-01T05:47:45;4.97;;;4.23;;
8458;SDS011;4266;48.816;9.154;2023-01-01T05:50:11;4.47;;;4.07;;
8458;SDS011;4266;48.816;9.154;2023-01-01T05:52:37;5.83;;;3.70;;
8458;SDS011;4266;48.816;9.154;2023-01-01T05:55:04;3.90;;;3.47;;
8458;SDS011;4266;48.816;9.154;2023-01-01T05:57:31;5.37;;;3.80;;
8458;SDS011;4266;48.816;9.154;2023-01-01T05:59:56;4.43;;;4.03;;
8458;SDS011;4266;48.816;9.154;2023-01-01T06:02:23;4.23;;;3.93;;
8458;SDS011;4266;48.816;9.154;2023-01-01T06:04:49;5.20;;;4.13;;
8458;SDS011;4266;48.816;9.154;2023-01-01T06:07:15;5.10;;;3.83;;
8458;SDS011;4266;48.816;9.154;2023-01-01T06:09:41;4.83;;;4.43;;
8458;SDS011;4266;48.816;9.154;2023-01-01T06:12:07;4.20;;;3.80;;
8458;SDS011;4266;48.816;9.154;2023-01-01T06:14:32;4.87;;;4.40;;
8458;SDS011;4266;48.816;9.154;2023-01-01T06:16:58;4.60;;;4.20;;
8458;SDS011;4266;48.816;9.154;2023-01-01T06:19:24;4.33;;;4.03;;
8458;SDS011;4266;48.816;9.154;2023-01-01T06:21:50;6.13;;;4.20;;
8458;SDS011;4266;48.816;9.154;2023-01-01T06:24:16;4.03;;;3.73;;
8458;SDS011;4266;48.816;9.154;2023-01-01T06:26:43;4.27;;;3.87;;
8458;SDS011;4266;48.816;9.154;2023-01-01T06:29:08;4.40;;;4.00;;
8458;SDS011;4266;48.816;9.154;2023-01-01T06:31:34;4.40;;;4.10;;
8458;SDS011;4266;48.816;9.154;2023-01-01T06:34:00;4.50;;;4.10;;
8458;SDS011;4266;48.816;9.154;2023-01-01T06:36:26;6.00;;;4.10;;
8458;SDS011;4266;48.816;9.154;2023-01-01T06:38:52;6.17;;;4.33;;
8458;SDS011;4266;48.816;9.154;2023-01-01T06:41:18;5.70;;;5.20;;
8458;SDS011;4266;48.816;9.154;2023-01-01T06:43:43;4.87;;;4.47;;
8458;SDS011;4266;48.816;9.154;2023-01-01T06:46:18;5.47;;;4.80;;
8458;SDS011;4266;48.816;9.154;2023-01-01T06:48:46;5.50;;;4.90;;
8458;SDS011;4266;48.816;9.154;2023-01-01T06:51:12;5.40;;;4.90;;
8458;SDS011;4266;48.816;9.154;2023-01-01T06:53:38;8.63;;;5.17;;
8458;SDS011;4266;48.816;9.154;2023-01-01T06:56:05;5.60;;;5.07;;
8458;SDS011;4266;48.816;9.154;2023-01-01T06:58:31;5.90;;;4.97;;
8458;SDS011;4266;48.816;9.154;2023-01-01T07:01:04;5.20;;;4.70;;
8458;SDS011;4266;48.816;9.154;2023-01-01T07:03:30;5.03;;;4.53;;
8458;SDS011;4266;48.816;9.154;2023-01-01T07:05:56;5.30;;;4.77;;
8458;SDS011;4266;48.816;9.154;2023-01-01T07:08:22;5.37;;;4.90;;
8458;SDS011;4266;48.816;9.154;2023-01-01T07:10:47;5.93;;;4.73;;
8458;SDS011;4266;48.816;9.154;2023-01-01T07:13:13;6.00;;;4.90;;
8458;SDS011;4266;48.816;9.154;2023-01-01T07:15:39;5.40;;;4.90;;
8458;SDS011;4266;48.816;9.154;2023-01-01T07:18:05;8.27;;;5.27;;
8458;SDS011;4266;48.816;9.154;2023-01-01T07:20:31;5.63;;;4.57;;
8458;SDS011;4266;48.816;9.154;2023-01-01T07:22:57;6.83;;;6.10;;
8458;SDS011;4266;48.816;9.154;2023-01-01T07:25:23;5.87;;;5.37;;
8458;SDS011;4266;48.816;9.154;2023-01-01T07:27:49;5.73;;;4.50;;
8458;SDS011;4266;48.816;9.154;2023-01-01T07:30:15;5.93;;;5.43;;
8458;SDS011;4266;48.816;9.154;2023-01-01T07:32:41;4.90;;;4.37;;
8458;SDS011;4266;48.816;9.154;2023-01-01T07:35:07;5.43;;;4.77;;
8458;SDS011;4266;48.816;9.154;2023-01-01T07:37:33;7.50;;;4.97;;
8458;SDS011;4266;48.816;9.154;2023-01-01T07:39:59;5.37;;;4.87;;
8458;SDS011;4266;48.816;9.154;2023-01-01T07:42:24;5.10;;;4.60;;
8458;SDS011;4266;48.816;9.154;2023-01-01T07:44:51;5.47;;;4.93;;
8458;SDS011;4266;48.816;9.154;2023-01-01T07:47:19;5.23;;;4.50;;
8458;SDS011;4266;48.816;9.154;2023-01-01T07:49:50;5.47;;;4.10;;
8458;SDS011;4266;48.816;9.154;2023-01-01T07:52:16;6.30;;;4.57;;
8458;SDS011;4266;48.816;9.154;2023-01-01T07:54:42;4.50;;;4.10;;
8458;SDS011;4266;48.816;9.154;2023-01-01T07:57:07;4.80;;;4.40;;
8458;SDS011;4266;48.816;9.154;2023-01-01T07:59:33;5.10;;;4.70;;
8458;SDS011;4266;48.816;9.154;2023-01-01T08:01:59;5.00;;;4.60;;
8458;SDS011;4266;48.816;9.154;2023-01-01T08:04:25;4.80;;;4.40;;
8458;SDS011;4266;48.816;9.154;2023-01-01T08:06:52;4.37;;;3.93;;
8458;SDS011;4266;48.816;9.154;2023-01-01T08:09:18;4.90;;;4.37;;
8458;SDS011;4266;48.816;9.154;2023-01-01T08:11:44;4.37;;;3.90;;
8458;SDS011;4266;48.816;9.154;2023-01-01T08:14:10;5.10;;;4.60;;
8458;SDS011;4266;48.816;9.154;2023-01-01T08:16:35;4.70;;;4.30;;
8458;SDS011;4266;48.816;9.154;2023-01-01T08:19:01;6.47;;;4.50;;
8458;SDS011;4266;48.816;9.154;2023-01-01T08:21:27;4.27;;;3.97;;
8458;SDS011;4266;48.816;9.154;2023-01-01T08:23:52;4.77;;;4.10;;
8458;SDS011;4266;48.816;9.154;2023-01-01T08:26:25;5.40;;;4.90;;
8458;SDS011;4266;48.816;9.154;2023-01-01T08:28:45;4.97;;;3.93;;
8458;SDS011;4266;48.816;9.154;2023-01-01T08:31:10;4.57;;;4.17;;
8458;SDS011;4266;48.816;9.154;2023-01-01T08:33:36;4.50;;;3.93;;
8458;SDS011;4266;48.816;9.154;2023-01-01T08:36:02;4.70;;;3.90;;
8458;SDS011;4266;48.816;9.154;2023-01-01T08:38:28;4.37;;;3.97;;
8458;SDS011;4266;48.816;9.154;2023-01-01T08:40:54;5.33;;;3.90;;
8458;SDS011;4266;48.816;9.154;2023-01-01T08:43:20;4.67;;;4.20;;
8458;SDS011;4266;48.816;9.154;2023-01-01T08:45:46;4.83;;;4.00;;
8458;SDS011;4266;48.816;9.154;2023-01-01T08:48:12;4.57;;;4.00;;
8458;SDS011;4266;48.816;9.154;2023-01-01T08:50:38;4.23;;;3.83;;
8458;SDS011;4266;48.816;9.154;2023-01-01T08:53:03;4.80;;;4.32;;
8458;SDS011;4266;48.816;9.154;2023-01-01T08:55:29;5.45;;;3.80;;
8458;SDS011;4266;48.816;9.154;2023-01-01T08:57:56;4.75;;;3.97;;
8458;SDS011;4266;48.816;9.154;2023-01-01T09:00:22;4.30;;;3.90;;
8458;SDS011;4266;48.816;9.154;2023-01-01T09:02:48;4.40;;;4.00;;
8458;SDS011;4266;48.816;9.154;2023-01-01T09:05:14;4.40;;;4.00;;
8458;SDS011;4266;48.816;9.154;2023-01-01T09:07:39;5.03;;;4.28;;
8458;SDS011;4266;48.816;9.154;2023-01-01T09:10:05;4.20;;;3.80;;
8458;SDS011;4266;48.816;9.154;2023-01-01T09:12:32;4.00;;;3.70;;
8458;SDS011;4266;48.816;9.154;2023-01-01T09:14:57;5.47;;;3.90;;
8458;SDS011;4266;48.816;9.154;2023-01-01T09:17:23;4.75;;;3.90;;
8458;SDS011;4266;48.816;9.154;2023-01-01T09:19:49;5.12;;;3.72;;
8458;SDS011;4266;48.816;9.154;2023-01-01T09:22:15;3.97;;;3.67;;
8458;SDS011;4266;48.816;9.154;2023-01-01T09:24:41;5.28;;;4.18;;
8458;SDS011;4266;48.816;9.154;2023-01-01T09:27:06;5.12;;;4.57;;
8458;SDS011;4266;48.816;9.154;2023-01-01T09:29:32;4.78;;;4.30;;
8458;SDS011;4266;48.816;9.154;2023-01-01T09:31:58;3.90;;;3.62;;
8458;SDS011;4266;48.816;9.154;2023-01-01T09:34:24;4.43;;;4.03;;
8458;SDS011;4266;48.816;9.154;2023-01-01T09:36:50;4.65;;;4.25;;
8458;SDS011;4266;48.816;9.154;2023-01-01T09:39:16;4.95;;;3.83;;
8458;SDS011;4266;48.816;9.154;2023-01-01T09:41:46;4.50;;;4.10;;
8458;SDS011;4266;48.816;9.154;2023-01-01T09:46:53;4.80;;;4.32;;
8458;SDS011;4266;48.816;9.154;2023-01-01T09:49:24;5.80;;;4.12;;
8458;SDS011;4266;48.816;9.154;2023-01-01T09:51:54;5.00;;;4.10;;
8458;SDS011;4266;48.816;9.154;2023-01-01T09:54:26;4.07;;;3.78;;
8458;SDS011;4266;48.816;9.154;2023-01-01T09:56:49;4.10;;;3.70;;
8458;SDS011;4266;48.816;9.154;2023-01-01T09:59:15;4.18;;;3.87;;
8458;SDS011;4266;48.816;9.154;2023-01-01T10:02:53;3.80;;;3.50;;
8458;SDS011;4266;48.816;9.154;2023-01-01T10:04:33;4.50;;;4.00;;
8458;SDS011;4266;48.816;9.154;2023-01-01T10:07:05;3.95;;;3.67;;
8458;SDS011;4266;48.816;9.154;2023-01-01T10:09:33;5.95;;;4.15;;
8458;SDS011;4266;48.816;9.154;2023-01-01T10:12:20;8.38;;;3.95;;
8458;SDS011;4266;48.816;9.154;2023-01-01T10:14:47;3.92;;;3.62;;
8458;SDS011;4266;48.816;9.154;2023-01-01T10:17:14;6.65;;;4.25;;
8458;SDS011;4266;48.816;9.154;2023-01-01T10:19:52;3.50;;;3.30;;
8458;SDS011;4266;48.816;9.154;2023-01-01T10:22:21;6.70;;;3.83;;
8458;SDS011;4266;48.816;9.154;2023-01-01T10:24:45;4.43;;;3.58;;
8458;SDS011;4266;48.816;9.154;2023-01-01T10:27:12;5.25;;;4.00;;
8458;SDS011;4266;48.816;9.154;2023-01-01T10:29:40;4.50;;;4.10;;
8458;SDS011;4266;48.816;9.154;2023-01-01T10:32:05;5.60;;;4.00;;
8458;SDS011;4266;48.816;9.154;2023-01-01T10:34:29;4.03;;;3.62;;
8458;SDS011;4266;48.816;9.154;2023-01-01T10:36:55;3.83;;;3.53;;
8458;SDS011;4266;48.816;9.154;2023-01-01T10:39:21;7.60;;;3.87;;
8458;SDS011;4266;48.816;9.154;2023-01-01T10:41:47;5.78;;;3.92;;
8458;SDS011;4266;48.816;9.154;2023-01-01T10:44:14;4.50;;;3.83;;
8458;SDS011;4266;48.816;9.154;2023-01-01T10:46:40;4.55;;;3.83;;
8458;SDS011;4266;48.816;9.154;2023-01-01T10:49:07;5.55;;;3.75;;
8458;SDS011;4266;48.816;9.154;2023-01-01T10:51:31;4.20;;;3.90;;
8458;SDS011;4266;48.816;9.154;2023-01-01T10:53:57;4.53;;;3.90;;
8458;SDS011;4266;48.816;9.154;2023-01-01T10:56:23;4.32;;;3.62;;
8458;SDS011;4266;48.816;9.154;2023-01-01T10:58:50;3.92;;;3.53;;
8458;SDS011;4266;48.816;9.154;2023-01-01T11:01:24;4.53;;;3.87;;
8458;SDS011;4266;48.816;9.154;2023-01-01T11:03:57;4.05;;;3.60;;
8458;SDS011;4266;48.816;9.154;2023-01-01T11:06:27;4.40;;;3.83;;
8458;SDS011;4266;48.816;9.154;2023-01-01T11:08:54;3.55;;;3.25;;
8458;SDS011;4266;48.816;9.154;2023-01-01T11:11:21;3.83;;;3.12;;
8458;SDS011;4266;48.816;9.154;2023-01-01T11:13:48;4.40;;;3.53;;
8458;SDS011;4266;48.816;9.154;2023-01-01T11:16:13;4.53;;;3.15;;
8458;SDS011;4266;48.816;9.154;2023-01-01T11:18:39;4.50;;;3.53;;
8458;SDS011;4266;48.816;9.154;2023-01-01T11:21:05;8.77;;;3.53;;
8458;SDS011;4266;48.816;9.154;2023-01-01T11:23:32;3.87;;;3.58;;
8458;SDS011;4266;48.816;9.154;2023-01-01T11:26:29;5.85;;;3.80;;
8458;SDS011;4266;48.816;9.154;2023-01-01T11:31:27;5.47;;;3.42;;
8458;SDS011;4266;48.816;9.154;2023-01-01T11:33:55;7.53;;;3.72;;
8458;SDS011;4266;48.816;9.154;2023-01-01T11:36:24;3.42;;;3.10;;
8458;SDS011;4266;48.816;9.154;2023-01-01T11:39:03;5.07;;;3.58;;
8458;SDS011;4266;48.816;9.154;2023-01-01T11:41:16;6.18;;;3.58;;
8458;SDS011;4266;48.816;9.154;2023-01-01T11:43:43;5.68;;;3.35;;
8458;SDS011;4266;48.816;9.154;2023-01-01T11:46:09;4.32;;;3.60;;
8458;SDS011;4266;48.816;9.154;2023-01-01T11:48:35;4.75;;;3.40;;
8458;SDS011;4266;48.816;9.154;2023-01-01T11:51:27;4.95;;;3.40;;
8458;SDS011;4266;48.816;9.154;2023-01-01T11:53:41;4.22;;;3.50;;
8458;SDS011;4266;48.816;9.154;2023-01-01T11:56:20;5.15;;;3.22;;
8458;SDS011;4266;48.816;9.154;2023-01-01T11:58:49;3.70;;;3.10;;
8458;SDS011;4266;48.816;9.154;2023-01-01T12:04:06;3.50;;;3.17;;
8458;SDS011;4266;48.816;9.154;2023-01-01T12:06:35;5.50;;;3.65;;
8458;SDS011;4266;48.816;9.154;2023-01-01T12:09:06;5.45;;;3.80;;
8458;SDS011;4266;48.816;9.154;2023-01-01T12:11:43;3.95;;;3.55;;
8458;SDS011;4266;48.816;9.154;2023-01-01T12:14:14;5.05;;;3.50;;
8458;SDS011;4266;48.816;9.154;2023-01-01T12:17:03;4.68;;;3.75;;
8458;SDS011;4266;48.816;9.154;2023-01-01T12:19:31;4.07;;;3.60;;
8458;SDS011;4266;48.816;9.154;2023-01-01T12:21:57;3.80;;;3.50;;
8458;SDS011;4266;48.816;9.154;2023-01-01T12:24:22;5.60;;;3.83;;
8458;SDS011;4266;48.816;9.154;2023-01-01T12:26:56;4.43;;;3.83;;
8458;SDS011;4266;48.816;9.154;2023-01-01T12:29:27;3.78;;;3.47;;
8458;SDS011;4266;48.816;9.154;2023-01-01T12:32:08;7.43;;;3.28;;
8458;SDS011;4266;48.816;9.154;2023-01-01T12:34:35;7.80;;;3.50;;
8458;SDS011;4266;48.816;9.154;2023-01-01T12:42:47;5.25;;;3.22;;
8458;SDS011;4266;48.816;9.154;2023-01-01T12:45:38;6.50;;;3.42;;
8458;SDS011;4266;48.816;9.154;2023-01-01T12:51:55;5.65;;;3.20;;
8458;SDS011;4266;48.816;9.154;2023-01-01T12:56:08;4.32;;;3.20;;
8458;SDS011;4266;48.816;9.154;2023-01-01T12:58:55;7.30;;;3.45;;
8458;SDS011;4266;48.816;9.154;2023-01-01T13:01:20;3.62;;;3.33;;
8458;SDS011;4266;48.816;9.154;2023-01-01T13:03:52;3.58;;;3.25;;
8458;SDS011;4266;48.816;9.154;2023-01-01T13:06:18;6.80;;;3.35;;
8458;SDS011;4266;48.816;9.154;2023-01-01T13:08:46;5.47;;;3.50;;
8458;SDS011;4266;48.816;9.154;2023-01-01T13:11:19;4.00;;;3.05;;
8458;SDS011;4266;48.816;9.154;2023-01-01T13:13:44;4.68;;;3.00;;
8458;SDS011;4266;48.816;9.154;2023-01-01T13:16:11;5.20;;;3.58;;
8458;SDS011;4266;48.816;9.154;2023-01-01T13:18:38;7.03;;;3.75;;
8458;SDS011;4266;48.816;9.154;2023-01-01T13:21:20;4.15;;;3.75;;
8458;SDS011;4266;48.816;9.154;2023-01-01T13:23:44;10.25;;;4.12;;
8458;SDS011;4266;48.816;9.154;2023-01-01T13:26:31;3.80;;;3.50;;
8458;SDS011;4266;48.816;9.154;2023-01-01T13:31:58;9.60;;;3.70;;
8458;SDS011;4266;48.816;9.154;2023-01-01T13:34:33;7.68;;;3.55;;
8458;SDS011;4266;48.816;9.154;2023-01-01T13:39:53;6.90;;;3.55;;
8458;SDS011;4266;48.816;9.154;2023-01-01T13:44:57;4.18;;;3.42;;
8458;SDS011;4266;48.816;9.154;2023-01-01T13:47:29;6.55;;;3.30;;
8458;SDS011;4266;48.816;9.154;2023-01-01T13:53:04;6.43;;;3.10;;
8458;SDS011;4266;48.816;9.154;2023-01-01T13:58:13;5.37;;;3.00;;
8458;SDS011;4266;48.816;9.154;2023-01-01T14:03:26;3.45;;;3.12;;
8458;SDS011;4266;48.816;9.154;2023-01-01T14:05:54;5.43;;;3.42;;
8458;SDS011;4266;48.816;9.154;2023-01-01T14:08:25;4.93;;;3.22;;
8458;SDS011;4266;48.816;9.154;2023-01-01T14:10:51;7.78;;;3.78;;
8458;SDS011;4266;48.816;9.154;2023-01-01T14:13:18;5.43;;;3.28;;
8458;SDS011;4266;48.816;9.154;2023-01-01T14:15:50;4.50;;;3.35;;
8458;SDS011;4266;48.816;9.154;2023-01-01T14:18:17;3.72;;;3.42;;
8458;SDS011;4266;48.816;9.154;2023-01-01T14:20:43;6.37;;;3.33;;
8458;SDS011;4266;48.816;9.154;2023-01-01T14:23:10;6.97;;;3.45;;
8458;SDS011;4266;48.816;9.154;2023-01-01T14:25:35;16.75;;;3.58;;
8458;SDS011;4266;48.816;9.154;2023-01-01T14:28:01;6.65;;;3.33;;
8458;SDS011;4266;48.816;9.154;2023-01-01T14:30:26;9.75;;;3.53;;
8458;SDS011;4266;48.816;9.154;2023-01-01T14:32:58;6.18;;;3.40;;
8458;SDS011;4266;48.816;9.154;2023-01-01T14:35:23;5.53;;;3.85;;
8458;SDS011;4266;48.816;9.154;2023-01-01T14:37:48;5.00;;;3.60;;
8458;SDS011;4266;48.816;9.154;2023-01-01T14:40:16;7.68;;;3.85;;
8458;SDS011;4266;48.816;9.154;2023-01-01T14:42:43;4.60;;;3.53;;
8458;SDS011;4266;48.816;9.154;2023-01-01T14:45:13;6.28;;;3.72;;
8458;SDS011;4266;48.816;9.154;2023-01-01T14:47:39;4.57;;;3.47;;
8458;SDS011;4266;48.816;9.154;2023-01-01T14:52:53;7.90;;;3.60;;
8458;SDS011;4266;48.816;9.154;2023-01-01T14:55:18;7.72;;;3.97;;
8458;SDS011;4266;48.816;9.154;2023-01-01T14:57:44;4.95;;;3.37;;
8458;SDS011;4266;48.816;9.154;2023-01-01T15:00:19;6.95;;;3.60;;
8458;SDS011;4266;48.816;9.154;2023-01-01T15:02:39;6.25;;;3.78;;
8458;SDS011;4266;48.816;9.154;2023-01-01T15:07:38;4.93;;;3.97;;
8458;SDS011;4266;48.816;9.154;2023-01-01T15:10:04;9.27;;;5.22;;
8458;SDS011;4266;48.816;9.154;2023-01-01T15:12:32;10.15;;;5.07;;
8458;SDS011;4266;48.816;9.154;2023-01-01T15:14:57;8.63;;;4.03;;
8458;SDS011;4266;48.816;9.154;2023-01-01T15:17:24;7.85;;;4.93;;
8458;SDS011;4266;48.816;9.154;2023-01-01T15:22:26;9.18;;;6.10;;
8458;SDS011;4266;48.816;9.154;2023-01-01T15:24:52;8.20;;;6.03;;
8458;SDS011;4266;48.816;9.154;2023-01-01T15:27:23;13.98;;;7.78;;
8458;SDS011;4266;48.816;9.154;2023-01-01T15:29:46;8.63;;;5.63;;
8458;SDS011;4266;48.816;9.154;2023-01-01T15:32:13;7.87;;;5.25;;
8458;SDS011;4266;48.816;9.154;2023-01-01T15:34:40;6.87;;;5.00;;
8458;SDS011;4266;48.816;9.154;2023-01-01T15:37:13;5.03;;;4.53;;
8458;SDS011;4266;48.816;9.154;2023-01-01T15:39:49;6.57;;;5.20;;
8458;SDS011;4266;48.816;9.154;2023-01-01T15:45:07;9.43;;;4.57;;
8458;SDS011;4266;48.816;9.154;2023-01-01T15:47:28;5.20;;;4.10;;
8458;SDS011;4266;48.816;9.154;2023-01-01T15:52:32;8.10;;;4.03;;
8458;SDS011;4266;48.816;9.154;2023-01-01T15:54:58;8.93;;;4.93;;
8458;SDS011;4266;48.816;9.154;2023-01-01T15:57:24;14.47;;;12.00;;
8458;SDS011;4266;48.816;9.154;2023-01-01T15:59:51;14.30;;;8.80;;
8458;SDS011;4266;48.816;9.154;2023-01-01T16:02:19;8.63;;;5.50;;
8458;SDS011;4266;48.816;9.154;2023-01-01T16:04:46;9.07;;;6.07;;
8458;SDS011;4266;48.816;9.154;2023-01-01T16:07:14;9.27;;;5.17;;